createdAt,value
2017-08-13T00:03:49.950Z,94.10
2017-08-13T00:08:53.130Z,93.90
2017-08-13T00:13:57.276Z,92.90
2017-08-13T00:19:00.454Z,92.80
2017-08-13T00:24:04.407Z,92.90
2017-08-13T00:29:07.577Z,94.10
2017-08-13T00:34:10.768Z,92.90
2017-08-13T00:39:13.950Z,93.60
2017-08-13T00:44:17.129Z,93.90
2017-08-13T00:49:21.073Z,93.20
2017-08-13T00:54:24.270Z,93.10
2017-08-13T00:59:27.446Z,93.00
2017-08-13T01:04:31.413Z,93.00
2017-08-13T01:09:34.596Z,92.80
2017-08-13T01:14:38.518Z,93.80
2017-08-13T01:19:42.589Z,93.60
2017-08-13T01:24:45.803Z,93.60
2017-08-13T01:29:48.973Z,93.00
2017-08-13T01:34:52.184Z,92.70
2017-08-13T01:39:55.388Z,93.00
2017-08-13T01:44:58.547Z,92.90
2017-08-13T01:50:01.702Z,92.60
2017-08-13T01:55:04.904Z,93.10
2017-08-13T02:00:08.200Z,92.60
2017-08-13T02:05:12.133Z,92.90
2017-08-13T02:10:15.335Z,92.80
2017-08-13T02:15:19.283Z,93.00
2017-08-13T02:20:22.674Z,92.80
2017-08-13T02:25:26.026Z,92.80
2017-08-13T02:30:29.212Z,93.10
2017-08-13T02:35:32.405Z,93.00
2017-08-13T02:40:35.589Z,94.00
2017-08-13T02:45:39.533Z,97.80
2017-08-13T02:50:42.715Z,97.80
2017-08-13T02:55:46.665Z,98.70
2017-08-13T03:00:49.872Z,98.80
2017-08-13T03:05:53.046Z,99.30
2017-08-13T03:10:56.375Z,99.60
2017-08-13T03:16:00.393Z,99.40
2017-08-13T03:21:04.698Z,99.70
2017-08-13T03:26:07.900Z,99.70
2017-08-13T03:31:11.089Z,99.90
2017-08-13T03:36:14.277Z,99.90
2017-08-13T03:41:17.462Z,99.90
2017-08-13T03:46:20.749Z,99.70
2017-08-13T03:51:24.098Z,99.90
2017-08-13T03:56:27.294Z,99.90
2017-08-13T04:01:30.533Z,99.90
2017-08-13T04:06:33.718Z,99.90
2017-08-13T04:11:36.915Z,99.90
2017-08-13T04:16:40.254Z,99.90
2017-08-13T04:21:43.430Z,99.90
2017-08-13T04:26:46.606Z,99.90
2017-08-13T04:31:49.790Z,99.90
2017-08-13T04:36:53.017Z,99.90
2017-08-13T04:41:56.238Z,99.90
2017-08-13T04:47:00.311Z,99.90
2017-08-13T04:52:03.499Z,99.90
2017-08-13T04:57:07.411Z,99.90
2017-08-13T05:02:11.377Z,99.90
2017-08-13T05:07:14.561Z,99.90
2017-08-13T05:12:17.741Z,99.90
2017-08-13T05:17:21.706Z,99.20
2017-08-13T05:22:24.932Z,99.20
2017-08-13T05:27:28.167Z,98.10
2017-08-13T05:32:31.398Z,98.90
2017-08-13T05:37:34.697Z,99.10
2017-08-13T05:42:38.643Z,98.90
2017-08-13T05:47:41.833Z,98.90
2017-08-13T05:52:45.774Z,96.50
2017-08-13T05:57:49.010Z,96.30
2017-08-13T06:02:52.201Z,97.80
2017-08-13T06:07:55.369Z,98.10
2017-08-13T06:12:59.345Z,94.40
2017-08-13T06:18:02.558Z,94.40
2017-08-13T06:23:05.734Z,94.40
2017-08-13T06:28:08.924Z,95.40
2017-08-13T06:33:12.900Z,95.90
2017-08-13T06:38:16.076Z,95.80
2017-08-13T06:43:19.261Z,95.40
2017-08-13T06:48:23.246Z,94.50
2017-08-13T06:53:26.469Z,94.40
2017-08-13T06:58:29.655Z,90.40
2017-08-13T07:03:32.864Z,92.00
2017-08-13T07:08:36.125Z,91.10
2017-08-13T07:13:40.053Z,87.40
2017-08-13T07:18:43.232Z,87.30
2017-08-13T07:23:46.414Z,85.30
2017-08-13T07:28:49.598Z,84.60
2017-08-13T07:33:52.785Z,82.20
2017-08-13T07:38:55.958Z,82.50
2017-08-13T07:43:59.160Z,81.50
2017-08-13T07:49:02.354Z,79.90
2017-08-13T07:54:05.521Z,78.60
2017-08-13T07:59:08.719Z,76.80
2017-08-13T08:04:11.906Z,76.80
2017-08-13T08:09:15.866Z,75.80
2017-08-13T08:14:19.089Z,75.70
2017-08-13T08:19:22.269Z,72.90
2017-08-13T08:24:25.454Z,70.80
2017-08-13T08:29:29.487Z,68.70
2017-08-13T08:34:33.438Z,70.80
2017-08-13T08:39:36.619Z,70.80
2017-08-13T08:44:39.871Z,67.80
2017-08-13T08:49:43.062Z,67.30
2017-08-13T08:54:46.278Z,69.40
2017-08-13T08:59:49.487Z,66.60
2017-08-13T09:04:52.712Z,68.10
2017-08-13T09:09:55.933Z,69.40
2017-08-13T09:14:59.593Z,67.80
2017-08-13T09:20:02.902Z,62.70
2017-08-13T09:25:06.123Z,61.70
2017-08-13T09:30:09.307Z,59.20
2017-08-13T09:35:12.491Z,57.70
2017-08-13T09:40:16.449Z,56.20
2017-08-13T09:45:19.628Z,56.00
2017-08-13T09:50:23.608Z,60.30
2017-08-13T09:55:26.862Z,59.70
2017-08-13T10:00:30.810Z,58.50
2017-08-13T10:05:34.040Z,58.40
2017-08-13T10:10:37.259Z,59.00
2017-08-13T10:15:40.448Z,58.50
2017-08-13T10:20:43.636Z,58.90
2017-08-13T10:25:46.847Z,58.80
2017-08-13T10:30:50.052Z,58.10
2017-08-13T10:35:53.241Z,57.20
2017-08-13T10:40:58.106Z,64.70
2017-08-13T10:46:05.600Z,64.80
2017-08-13T10:51:09.559Z,61.00
2017-08-13T10:56:12.770Z,61.00
2017-08-13T11:01:16.027Z,57.00
2017-08-13T11:06:19.342Z,55.20
2017-08-13T11:11:23.295Z,52.50
2017-08-13T11:16:26.495Z,52.50
2017-08-13T11:21:29.699Z,53.20
2017-08-13T11:26:32.944Z,51.90
2017-08-13T11:31:36.208Z,50.60
2017-08-13T11:36:40.164Z,49.80
2017-08-13T11:41:43.320Z,49.80
2017-08-13T11:46:47.278Z,49.00
2017-08-13T11:51:50.491Z,48.90
2017-08-13T11:56:53.698Z,49.10
2017-08-13T12:01:56.885Z,51.00
2017-08-13T12:07:00.088Z,52.10
2017-08-13T12:12:04.044Z,52.50
2017-08-13T12:17:07.219Z,52.50
2017-08-13T12:22:10.427Z,53.00
2017-08-13T12:27:13.619Z,51.50
2017-08-13T12:32:17.597Z,52.80
2017-08-13T12:37:20.897Z,52.90
2017-08-13T12:42:24.173Z,53.00
2017-08-13T12:47:28.113Z,52.50
2017-08-13T12:52:31.328Z,52.40
2017-08-13T12:57:34.507Z,50.30
2017-08-13T13:02:38.462Z,48.70
2017-08-13T13:07:41.616Z,48.70
2017-08-13T13:12:45.594Z,46.90
2017-08-13T13:17:48.770Z,47.30
2017-08-13T13:22:51.967Z,47.30
2017-08-13T13:27:55.937Z,48.70
2017-08-13T13:32:59.125Z,48.80
2017-08-13T13:38:02.323Z,48.90
2017-08-13T13:43:06.247Z,48.40
2017-08-13T13:48:09.416Z,48.40
2017-08-13T13:53:12.579Z,48.30
2017-08-13T13:58:15.760Z,47.50
2017-08-13T14:03:18.918Z,45.40
2017-08-13T14:08:22.161Z,43.90
2017-08-13T14:13:26.093Z,42.00
2017-08-13T14:18:29.294Z,42.00
2017-08-13T14:23:33.352Z,41.30
2017-08-13T14:28:36.579Z,41.30
2017-08-13T14:33:39.770Z,41.90
2017-08-13T14:38:43.091Z,41.30
2017-08-13T14:43:46.349Z,41.60
2017-08-13T14:48:50.308Z,40.20
2017-08-13T14:53:53.507Z,40.10
2017-08-13T14:58:56.718Z,39.80
2017-08-13T15:03:59.912Z,39.40
2017-08-13T15:09:03.082Z,38.20
2017-08-13T15:14:06.280Z,39.60
2017-08-13T15:19:09.486Z,39.30
2017-08-13T15:24:12.671Z,38.30
2017-08-13T15:29:15.846Z,36.80
2017-08-13T15:34:19.046Z,37.00
2017-08-13T15:39:22.248Z,39.00
2017-08-13T15:44:26.226Z,38.70
2017-08-13T15:49:29.434Z,38.50
2017-08-13T15:54:32.632Z,40.00
2017-08-13T15:59:35.839Z,38.90
2017-08-13T16:04:39.718Z,39.50
2017-08-13T16:09:43.677Z,38.40
2017-08-13T16:14:46.950Z,38.30
2017-08-13T16:19:51.587Z,38.60
2017-08-13T16:24:56.322Z,38.70
2017-08-13T16:29:59.599Z,38.60
2017-08-13T16:35:02.807Z,38.60
2017-08-13T16:40:06.037Z,40.10
2017-08-13T16:45:09.229Z,39.40
2017-08-13T16:50:34.131Z,39.70
2017-08-13T16:56:07.678Z,39.80
2017-08-13T17:01:11.649Z,39.60
2017-08-13T17:06:14.928Z,39.60
2017-08-13T17:11:18.914Z,39.20
2017-08-13T17:16:22.297Z,39.10
2017-08-13T17:21:33.921Z,39.40
2017-08-13T17:26:37.177Z,39.80
2017-08-13T17:31:40.427Z,39.70
2017-08-13T17:36:43.670Z,38.90
2017-08-13T17:41:48.744Z,40.60
2017-08-13T17:46:52.232Z,41.40
2017-08-13T17:51:56.695Z,41.90
2017-08-13T17:56:59.950Z,41.90
2017-08-13T18:02:03.501Z,41.70
2017-08-13T18:07:08.321Z,48.00
2017-08-13T18:12:11.509Z,48.00
2017-08-13T18:17:14.874Z,50.50
2017-08-13T18:22:18.812Z,60.10
2017-08-13T18:27:22.046Z,60.10
2017-08-13T18:32:25.807Z,61.40
2017-08-13T18:37:29.002Z,64.00
2017-08-13T18:42:32.600Z,62.50
2017-08-13T18:47:35.973Z,62.20
2017-08-13T18:58:14.706Z,64.20
2017-08-13T19:03:18.238Z,68.30
2017-08-13T19:08:22.411Z,69.90
2017-08-13T19:13:25.882Z,69.80
2017-08-13T19:18:30.119Z,69.40
2017-08-13T19:23:36.781Z,69.50
2017-08-13T19:28:40.450Z,68.80
2017-08-13T19:33:45.643Z,70.10
2017-08-13T19:38:50.240Z,71.10
2017-08-13T19:43:55.531Z,73.20
2017-08-13T19:48:59.188Z,75.10
2017-08-13T19:54:04.081Z,76.50
2017-08-13T19:59:09.454Z,76.40
2017-08-13T20:04:14.239Z,75.00
2017-08-13T20:09:19.158Z,73.00
2017-08-13T20:14:25.816Z,74.30
2017-08-13T20:19:31.351Z,74.30
2017-08-13T20:24:36.899Z,75.00
2017-08-13T20:29:42.307Z,76.30
2017-08-13T20:34:47.792Z,75.40
2017-08-13T20:39:52.010Z,76.90
2017-08-13T20:44:56.821Z,78.50
2017-08-13T20:50:00.574Z,79.60
2017-08-13T20:55:05.106Z,80.30
2017-08-13T21:00:09.885Z,80.10
2017-08-13T21:05:14.722Z,79.90
2017-08-13T21:10:20.143Z,81.50
2017-08-13T21:15:25.090Z,82.60
2017-08-13T21:20:29.787Z,82.60
2017-08-13T21:25:34.679Z,82.90
2017-08-13T21:30:38.354Z,83.00
2017-08-13T21:35:41.909Z,83.70
2017-08-13T21:40:47.660Z,84.00
2017-08-13T21:45:54.094Z,84.60
2017-08-13T21:51:03.597Z,84.70
2017-08-13T21:56:07.240Z,85.50
2017-08-13T22:01:11.542Z,86.50
2017-08-13T22:06:15.014Z,87.10
2017-08-13T22:11:19.454Z,86.00
2017-08-13T22:16:23.896Z,86.50
2017-08-13T22:21:27.951Z,85.00
2017-08-13T22:26:31.136Z,85.10
2017-08-13T22:31:35.521Z,84.30
2017-08-13T22:36:38.873Z,84.30
2017-08-13T22:41:44.265Z,84.90
2017-08-13T22:46:48.113Z,84.90
2017-08-13T22:51:51.302Z,85.40
2017-08-13T22:56:54.742Z,86.50
2017-08-13T23:01:57.931Z,86.50
2017-08-13T23:07:01.349Z,85.90
2017-08-13T23:12:04.865Z,86.00
2017-08-13T23:17:12.670Z,86.90
2017-08-13T23:22:15.890Z,87.40
2017-08-13T23:27:19.308Z,87.90
2017-08-13T23:32:22.618Z,87.50
2017-08-13T23:37:26.055Z,87.20
2017-08-13T23:42:30.272Z,86.00
2017-08-13T23:47:33.820Z,86.30
2017-08-13T23:52:37.219Z,86.70
2017-08-13T23:57:41.327Z,87.30
